createdAt,value
2018-12-13T00:00:45.802Z,15.00
2018-12-13T00:01:45.789Z,16.20
2018-12-13T00:02:45.813Z,14.80
2018-12-13T00:03:45.792Z,15.40
2018-12-13T00:04:45.788Z,14.70
2018-12-13T00:05:45.773Z,15.30
2018-12-13T00:06:45.756Z,15.50
2018-12-13T00:07:45.754Z,14.80
2018-12-13T00:08:45.736Z,15.00
2018-12-13T00:09:45.720Z,14.20
2018-12-13T00:10:45.715Z,14.90
2018-12-13T00:11:45.702Z,15.00
2018-12-13T00:12:45.693Z,14.80
2018-12-13T00:13:45.684Z,15.10
2018-12-13T00:14:45.670Z,15.10
2018-12-13T00:15:45.662Z,15.20
2018-12-13T00:16:45.651Z,15.80
2018-12-13T00:17:45.621Z,15.00
2018-12-13T00:18:45.604Z,15.30
2018-12-13T00:19:45.594Z,16.10
2018-12-13T00:20:45.582Z,16.20
2018-12-13T00:21:45.631Z,16.40
2018-12-13T00:22:45.561Z,15.70
2018-12-13T00:23:45.579Z,16.30
2018-12-13T00:24:45.540Z,16.10
2018-12-13T00:25:45.527Z,16.70
2018-12-13T00:26:45.517Z,16.60
2018-12-13T00:27:45.505Z,17.30
2018-12-13T00:28:45.495Z,16.90
2018-12-13T00:29:45.488Z,17.50
2018-12-13T00:30:45.477Z,18.00
2018-12-13T00:31:45.464Z,17.10
2018-12-13T00:32:45.452Z,17.20
2018-12-13T00:33:45.445Z,16.60
2018-12-13T00:34:45.436Z,17.10
2018-12-13T00:35:45.421Z,17.50
2018-12-13T00:36:45.407Z,16.20
2018-12-13T00:37:45.398Z,16.60
2018-12-13T00:38:45.386Z,16.80
2018-12-13T00:39:45.375Z,16.80
2018-12-13T00:40:45.364Z,16.70
2018-12-13T00:41:45.354Z,17.70
2018-12-13T00:42:45.376Z,16.90
2018-12-13T00:43:45.331Z,16.70
2018-12-13T00:44:45.325Z,16.80
2018-12-13T00:45:45.312Z,15.60
2018-12-13T00:46:45.301Z,15.90
2018-12-13T00:47:45.288Z,16.50
2018-12-13T00:48:45.281Z,16.50
2018-12-13T00:49:45.267Z,17.10
2018-12-13T00:50:45.259Z,17.40
2018-12-13T00:51:45.249Z,16.90
2018-12-13T00:52:45.238Z,16.50
2018-12-13T00:53:45.223Z,17.40
2018-12-13T00:54:45.212Z,17.00
2018-12-13T00:55:45.205Z,17.80
2018-12-13T00:56:45.190Z,16.50
2018-12-13T00:57:45.180Z,17.20
2018-12-13T00:58:45.170Z,17.20
2018-12-13T00:59:45.158Z,18.30
2018-12-13T01:00:45.150Z,17.40
2018-12-13T01:01:45.137Z,18.20
2018-12-13T01:02:45.127Z,17.00
2018-12-13T01:03:45.117Z,17.40
2018-12-13T01:04:45.105Z,18.60
2018-12-13T01:05:45.093Z,18.50
2018-12-13T01:06:46.077Z,17.90
2018-12-13T01:07:45.072Z,18.10
2018-12-13T01:08:45.063Z,19.00
2018-12-13T01:09:45.055Z,19.50
2018-12-13T01:10:45.040Z,19.30
2018-12-13T01:11:45.029Z,19.30
2018-12-13T01:12:45.022Z,20.60
2018-12-13T01:13:45.016Z,20.20
2018-12-13T01:14:44.996Z,20.80
2018-12-13T01:15:44.985Z,20.70
2018-12-13T01:16:44.976Z,20.00
2018-12-13T01:17:44.966Z,21.10
2018-12-13T01:18:44.952Z,20.90
2018-12-13T01:19:44.941Z,20.90
2018-12-13T01:20:44.936Z,21.80
2018-12-13T01:21:44.919Z,21.10
2018-12-13T01:22:44.910Z,22.90
2018-12-13T01:23:44.898Z,21.90
2018-12-13T01:24:44.887Z,22.50
2018-12-13T01:25:44.877Z,23.00
2018-12-13T01:26:44.871Z,24.10
2018-12-13T01:27:44.854Z,25.20
2018-12-13T01:28:44.846Z,24.30
2018-12-13T01:29:44.836Z,23.50
2018-12-13T01:30:44.825Z,25.10
2018-12-13T01:31:44.811Z,24.70
2018-12-13T01:32:44.802Z,25.10
2018-12-13T01:33:44.789Z,24.70
2018-12-13T01:34:44.780Z,25.10
2018-12-13T01:35:44.768Z,25.70
2018-12-13T01:36:44.756Z,25.50
2018-12-13T01:37:44.746Z,26.30
2018-12-13T01:38:44.739Z,25.40
2018-12-13T01:39:44.725Z,26.10
2018-12-13T01:40:44.716Z,27.30
2018-12-13T01:41:44.702Z,26.60
2018-12-13T01:42:44.693Z,25.70
2018-12-13T01:43:44.687Z,25.10
2018-12-13T01:44:44.670Z,24.90
2018-12-13T01:46:04.286Z,24.80
2018-12-13T01:47:27.714Z,25.50
2018-12-13T01:48:27.703Z,26.10
2018-12-13T01:49:27.691Z,25.70
2018-12-13T01:50:27.686Z,25.20
2018-12-13T01:51:27.669Z,25.10
2018-12-13T01:52:27.663Z,25.10
2018-12-13T01:53:27.647Z,25.70
2018-12-13T01:54:27.638Z,24.90
2018-12-13T01:55:27.628Z,25.70
2018-12-13T01:56:27.614Z,26.10
2018-12-13T01:57:27.603Z,26.70
2018-12-13T01:58:27.593Z,26.50
2018-12-13T01:59:27.585Z,27.40
2018-12-13T02:00:27.571Z,26.90
2018-12-13T02:01:27.559Z,25.90
2018-12-13T02:02:27.548Z,27.40
2018-12-13T02:03:27.540Z,26.60
2018-12-13T02:04:27.544Z,27.30
2018-12-13T02:05:27.515Z,27.50
2018-12-13T02:06:27.508Z,27.70
2018-12-13T02:07:27.495Z,27.20
2018-12-13T02:08:27.485Z,27.80
2018-12-13T02:09:27.478Z,27.70
2018-12-13T02:10:27.461Z,27.10
2018-12-13T02:11:27.450Z,27.60
2018-12-13T02:12:27.441Z,28.60
2018-12-13T02:13:27.429Z,28.10
2018-12-13T02:14:27.425Z,28.30
2018-12-13T02:15:27.411Z,28.40
2018-12-13T02:16:27.397Z,29.10
2018-12-13T02:17:27.388Z,29.60
2018-12-13T02:18:27.375Z,31.50
2018-12-13T02:19:27.365Z,29.80
2018-12-13T02:20:27.353Z,30.50
2018-12-13T02:21:27.347Z,30.60
2018-12-13T02:22:27.333Z,31.10
2018-12-13T02:23:27.320Z,30.40
2018-12-13T02:24:27.310Z,31.40
2018-12-13T02:25:27.299Z,31.30
2018-12-13T02:26:27.289Z,31.70
2018-12-13T02:27:27.282Z,31.80
2018-12-13T02:28:27.267Z,32.50
2018-12-13T02:29:27.256Z,34.10
2018-12-13T02:30:27.245Z,32.40
2018-12-13T02:31:27.240Z,33.90
2018-12-13T02:32:27.228Z,32.90
2018-12-13T02:33:27.212Z,32.30
2018-12-13T02:34:27.202Z,32.70
2018-12-13T02:35:27.191Z,32.80
2018-12-13T02:36:27.179Z,31.30
2018-12-13T02:37:27.170Z,33.10
2018-12-13T02:38:27.158Z,32.20
2018-12-13T02:39:27.154Z,30.60
2018-12-13T02:40:27.135Z,31.30
2018-12-13T02:41:27.127Z,32.10
2018-12-13T02:42:27.118Z,31.30
2018-12-13T02:43:27.103Z,32.50
2018-12-13T02:44:27.098Z,32.00
2018-12-13T02:45:27.092Z,30.90
2018-12-13T02:46:27.103Z,31.90
2018-12-13T02:47:27.094Z,31.80
2018-12-13T02:48:27.049Z,31.00
2018-12-13T02:49:27.044Z,31.90
2018-12-13T02:50:27.037Z,32.30
2018-12-13T02:51:27.020Z,31.30
2018-12-13T02:52:27.009Z,31.20
2018-12-13T02:53:26.997Z,30.40
2018-12-13T02:54:26.988Z,31.30
2018-12-13T02:55:26.982Z,29.90
2018-12-13T02:56:26.961Z,32.00
2018-12-13T02:57:26.951Z,30.20
2018-12-13T02:58:26.943Z,31.30
2018-12-13T02:59:26.930Z,30.70
2018-12-13T03:00:26.930Z,30.90
2018-12-13T03:01:26.912Z,30.60
2018-12-13T03:02:26.897Z,30.90
2018-12-13T03:03:26.886Z,32.00
2018-12-13T03:04:26.876Z,31.00
2018-12-13T03:05:26.865Z,30.10
2018-12-13T03:06:26.857Z,30.70
2018-12-13T03:07:26.845Z,31.20
2018-12-13T03:08:26.833Z,30.50
2018-12-13T03:09:26.823Z,31.40
2018-12-13T03:10:26.810Z,30.40
2018-12-13T03:11:26.804Z,30.90
2018-12-13T03:12:26.793Z,30.80
2018-12-13T03:13:26.777Z,31.50
2018-12-13T03:14:26.766Z,30.20
2018-12-13T03:15:26.759Z,30.80
2018-12-13T03:16:26.745Z,32.00
2018-12-13T03:17:26.740Z,31.60
2018-12-13T03:18:26.729Z,30.30
2018-12-13T03:19:26.731Z,30.20
2018-12-13T03:20:26.701Z,30.00
2018-12-13T03:21:26.690Z,30.10
2018-12-13T03:22:26.680Z,30.00
2018-12-13T03:23:26.671Z,30.60
2018-12-13T03:24:26.658Z,30.80
2018-12-13T03:25:26.650Z,30.40
2018-12-13T03:26:26.636Z,30.30
2018-12-13T03:27:26.626Z,30.00
2018-12-13T03:28:26.617Z,30.40
2018-12-13T03:29:26.606Z,31.40
2018-12-13T03:30:26.595Z,31.40
2018-12-13T03:31:26.584Z,29.60
2018-12-13T03:32:26.574Z,30.60
2018-12-13T03:33:26.564Z,29.70
2018-12-13T03:34:26.552Z,30.20
2018-12-13T03:35:26.544Z,29.40
2018-12-13T03:36:26.529Z,28.60
2018-12-13T03:37:26.521Z,29.10
2018-12-13T03:38:26.505Z,29.10
2018-12-13T03:39:26.502Z,28.90
2018-12-13T03:40:26.491Z,29.60
2018-12-13T03:41:26.481Z,29.20
2018-12-13T03:42:26.465Z,28.60
2018-12-13T03:43:26.453Z,29.70
2018-12-13T03:44:26.444Z,28.70
2018-12-13T03:45:26.433Z,30.00
2018-12-13T03:46:26.421Z,29.00
2018-12-13T03:47:26.407Z,28.10
2018-12-13T03:48:26.397Z,28.00
2018-12-13T03:49:26.387Z,28.20
2018-12-13T03:50:26.375Z,27.80
2018-12-13T03:51:26.366Z,27.90
2018-12-13T03:52:26.357Z,28.60
2018-12-13T03:53:26.343Z,27.50
2018-12-13T03:54:26.334Z,26.20
2018-12-13T03:55:26.321Z,26.80
2018-12-13T03:56:26.309Z,26.60
2018-12-13T03:57:26.303Z,26.70
2018-12-13T03:58:26.293Z,25.20
2018-12-13T03:59:26.285Z,27.10
2018-12-13T04:00:26.266Z,26.40
2018-12-13T04:01:26.256Z,25.10
2018-12-13T04:02:26.246Z,25.70
2018-12-13T04:03:26.235Z,25.60
2018-12-13T04:04:26.223Z,26.00
2018-12-13T04:05:26.211Z,24.50
2018-12-13T04:06:26.201Z,24.90
2018-12-13T04:07:27.830Z,24.60
2018-12-13T04:08:26.180Z,25.80
2018-12-13T04:09:26.172Z,25.50
2018-12-13T04:10:26.158Z,23.40
2018-12-13T04:11:26.148Z,25.60
2018-12-13T04:12:26.137Z,24.20
2018-12-13T04:13:26.127Z,24.40
2018-12-13T04:14:26.115Z,22.60
2018-12-13T04:15:26.107Z,23.00
2018-12-13T04:16:26.095Z,22.10
2018-12-13T04:17:26.084Z,22.60
2018-12-13T04:18:26.070Z,22.50
2018-12-13T04:19:26.063Z,23.30
2018-12-13T04:20:26.054Z,22.40
2018-12-13T04:21:26.039Z,22.40
2018-12-13T04:22:26.027Z,22.20
2018-12-13T04:23:26.014Z,23.10
2018-12-13T04:24:26.004Z,21.30
2018-12-13T04:25:25.994Z,21.80
2018-12-13T04:26:25.984Z,21.90
2018-12-13T04:27:25.971Z,21.90
2018-12-13T04:28:46.596Z,21.20
2018-12-13T04:29:56.931Z,21.50
2018-12-13T04:33:52.314Z,22.30
2018-12-13T04:34:52.274Z,23.10
2018-12-13T04:35:52.271Z,23.40
2018-12-13T04:36:52.255Z,22.50
2018-12-13T04:37:52.242Z,22.40
2018-12-13T04:38:52.231Z,22.90
2018-12-13T04:39:52.222Z,24.00
2018-12-13T04:40:52.209Z,23.50
2018-12-13T04:41:52.200Z,22.40
2018-12-13T04:42:52.190Z,22.80
2018-12-13T04:43:52.176Z,22.80
2018-12-13T04:44:52.167Z,23.10
2018-12-13T04:45:52.154Z,22.60
2018-12-13T04:46:52.146Z,21.80
2018-12-13T04:47:52.135Z,22.20
2018-12-13T04:48:52.121Z,23.20
2018-12-13T04:49:52.113Z,24.00
2018-12-13T04:50:52.101Z,24.00
2018-12-13T04:51:52.094Z,22.60
2018-12-13T04:52:52.085Z,22.70
2018-12-13T04:53:52.069Z,23.50
2018-12-13T04:54:52.059Z,25.00
2018-12-13T04:55:52.048Z,23.40
2018-12-13T04:56:52.036Z,24.30
2018-12-13T04:57:52.027Z,25.00
2018-12-13T04:58:52.015Z,25.10
2018-12-13T04:59:52.004Z,25.60
2018-12-13T05:00:51.992Z,25.60
2018-12-13T05:01:51.986Z,25.10
2018-12-13T05:02:51.978Z,26.60
2018-12-13T05:03:51.959Z,25.80
2018-12-13T05:04:51.954Z,27.40
2018-12-13T05:05:51.938Z,26.40
2018-12-13T05:06:51.929Z,25.30
2018-12-13T05:07:51.916Z,26.80
2018-12-13T05:08:51.904Z,26.80
2018-12-13T05:09:51.902Z,27.50
2018-12-13T05:10:51.883Z,27.50
2018-12-13T05:11:51.872Z,27.80
2018-12-13T05:12:51.863Z,26.30
2018-12-13T05:13:51.852Z,27.20
2018-12-13T05:14:51.840Z,27.30
2018-12-13T05:15:51.828Z,26.90
2018-12-13T05:16:51.817Z,25.90
2018-12-13T05:17:51.809Z,26.20
2018-12-13T05:18:51.796Z,26.20
2018-12-13T05:19:51.786Z,27.00
2018-12-13T05:20:51.776Z,27.00
2018-12-13T05:21:51.769Z,28.10
2018-12-13T05:22:51.754Z,30.10
2018-12-13T05:23:51.743Z,29.50
2018-12-13T05:24:51.731Z,28.60
2018-12-13T05:25:51.722Z,28.60
2018-12-13T05:26:51.712Z,29.70
2018-12-13T05:27:51.702Z,28.20
2018-12-13T05:28:51.694Z,26.50
2018-12-13T05:29:51.677Z,25.30
2018-12-13T05:30:51.667Z,25.10
2018-12-13T05:31:51.655Z,24.90
2018-12-13T05:32:51.648Z,25.50
2018-12-13T05:33:51.637Z,24.40
2018-12-13T05:34:51.622Z,24.90
2018-12-13T05:35:51.613Z,23.20
2018-12-13T05:36:51.604Z,23.80
2018-12-13T05:37:51.591Z,25.00
2018-12-13T05:38:51.581Z,24.40
2018-12-13T05:39:51.568Z,24.10
2018-12-13T05:40:51.559Z,24.30
2018-12-13T05:41:51.547Z,26.10
2018-12-13T05:42:51.535Z,26.70
2018-12-13T05:43:51.527Z,27.70
2018-12-13T05:44:51.517Z,27.90
2018-12-13T05:45:51.503Z,26.20
2018-12-13T05:46:51.494Z,25.90
2018-12-13T05:47:51.482Z,24.70
2018-12-13T05:48:51.471Z,23.80
2018-12-13T05:49:51.461Z,23.80
2018-12-13T05:50:51.448Z,22.00
2018-12-13T05:51:51.437Z,23.40
2018-12-13T05:52:51.430Z,22.40
2018-12-13T05:53:51.416Z,22.00
2018-12-13T05:54:51.405Z,22.70
2018-12-13T05:55:51.406Z,22.10
2018-12-13T05:56:51.383Z,22.90
2018-12-13T05:57:51.381Z,22.90
2018-12-13T05:58:51.366Z,22.90
2018-12-13T05:59:51.352Z,23.40
2018-12-13T06:00:51.342Z,23.10
2018-12-13T06:01:51.400Z,23.80
2018-12-13T06:02:51.321Z,23.50
2018-12-13T06:03:51.309Z,25.10
2018-12-13T06:04:51.296Z,24.60
2018-12-13T06:05:51.286Z,25.10
2018-12-13T06:06:51.274Z,25.10
2018-12-13T06:07:54.865Z,24.90
2018-12-13T06:08:51.255Z,24.50
2018-12-13T06:09:51.248Z,25.10
2018-12-13T06:10:51.232Z,25.50
2018-12-13T06:11:51.223Z,25.80
2018-12-13T06:12:51.212Z,25.70
2018-12-13T06:13:51.232Z,25.20
2018-12-13T06:14:51.187Z,28.00
2018-12-13T06:15:51.176Z,33.30
2018-12-13T06:16:51.168Z,32.20
2018-12-13T06:17:51.158Z,31.50
2018-12-13T06:18:51.151Z,30.60
2018-12-13T06:19:51.133Z,30.40
2018-12-13T06:20:51.123Z,29.10
2018-12-13T06:21:51.114Z,27.80
2018-12-13T06:22:51.102Z,28.40
2018-12-13T06:23:51.096Z,27.60
2018-12-13T06:24:51.079Z,27.80
2018-12-13T06:25:51.073Z,27.90
2018-12-13T06:26:51.057Z,26.70
2018-12-13T06:27:51.047Z,28.50
2018-12-13T06:28:51.039Z,29.00
2018-12-13T06:29:51.034Z,29.70
2018-12-13T06:30:51.016Z,29.10
2018-12-13T06:31:51.004Z,27.50
2018-12-13T06:32:50.992Z,28.50
2018-12-13T06:33:50.984Z,27.50
2018-12-13T06:34:50.970Z,29.60
2018-12-13T06:35:50.972Z,28.10
2018-12-13T06:36:50.949Z,29.20
2018-12-13T06:37:50.939Z,29.00
2018-12-13T06:38:50.927Z,28.50
2018-12-13T06:39:50.919Z,30.10
2018-12-13T06:40:50.911Z,29.40
2018-12-13T06:41:50.900Z,29.10
2018-12-13T06:42:50.885Z,29.50
2018-12-13T06:43:52.284Z,30.70
2018-12-13T06:44:50.863Z,30.50
2018-12-13T06:45:50.857Z,30.30
2018-12-13T06:46:50.842Z,30.80
2018-12-13T06:47:50.832Z,29.70
2018-12-13T06:48:50.819Z,29.70
2018-12-13T06:49:50.807Z,30.40
2018-12-13T06:50:50.796Z,30.30
2018-12-13T06:51:50.789Z,32.60
2018-12-13T06:52:50.778Z,31.70
2018-12-13T06:53:50.764Z,32.10
2018-12-13T06:54:50.754Z,31.80
2018-12-13T06:55:50.742Z,31.00
2018-12-13T06:56:50.731Z,31.90
2018-12-13T06:57:50.724Z,32.50
2018-12-13T06:58:50.729Z,32.30
2018-12-13T06:59:50.700Z,31.40
2018-12-13T07:00:50.688Z,33.00
2018-12-13T07:01:50.677Z,32.00
2018-12-13T07:02:50.669Z,31.80
2018-12-13T07:03:50.657Z,30.30
2018-12-13T07:04:50.646Z,32.20
2018-12-13T07:05:50.632Z,32.30
2018-12-13T07:06:50.622Z,30.90
2018-12-13T07:07:50.613Z,32.90
2018-12-13T07:08:50.603Z,33.80
2018-12-13T07:09:50.592Z,32.10
2018-12-13T07:10:50.581Z,32.60
2018-12-13T07:11:50.569Z,32.40
2018-12-13T07:12:50.558Z,31.40
2018-12-13T07:13:50.550Z,30.80
2018-12-13T07:14:50.539Z,30.50
2018-12-13T07:15:50.526Z,29.40
2018-12-13T07:16:50.513Z,29.50
2018-12-13T07:17:50.504Z,30.10
2018-12-13T07:18:50.493Z,29.90
2018-12-13T07:19:50.487Z,29.30
2018-12-13T07:20:50.472Z,28.10
2018-12-13T07:21:50.461Z,28.10
2018-12-13T07:22:50.450Z,27.20
2018-12-13T07:23:50.438Z,26.40
2018-12-13T07:24:50.429Z,27.20
2018-12-13T07:25:50.421Z,28.00
2018-12-13T07:26:50.428Z,27.90
2018-12-13T07:27:50.397Z,27.20
2018-12-13T07:28:50.384Z,34.80
2018-12-13T07:29:50.373Z,34.50
2018-12-13T07:30:50.389Z,37.80
2018-12-13T07:31:50.352Z,32.30
2018-12-13T07:32:50.343Z,28.30
2018-12-13T07:33:50.330Z,27.80
2018-12-13T07:34:50.319Z,26.30
2018-12-13T07:35:50.308Z,27.60
2018-12-13T07:36:50.297Z,27.30
2018-12-13T07:37:50.293Z,26.60
2018-12-13T07:38:50.276Z,27.70
2018-12-13T07:39:50.269Z,27.70
2018-12-13T07:40:50.254Z,28.40
2018-12-13T07:41:50.243Z,28.00
2018-12-13T07:42:50.234Z,28.40
2018-12-13T07:43:50.222Z,29.20
2018-12-13T07:44:50.212Z,28.10
2018-12-13T07:45:50.198Z,27.80
2018-12-13T07:46:50.193Z,27.00
2018-12-13T07:47:50.178Z,28.70
2018-12-13T07:48:56.249Z,27.80
2018-12-13T07:49:51.155Z,28.40
2018-12-13T07:50:50.149Z,29.20
2018-12-13T07:51:50.135Z,29.90
2018-12-13T07:52:50.126Z,29.90
2018-12-13T07:53:50.114Z,28.80
2018-12-13T07:54:50.105Z,28.10
2018-12-13T07:55:50.099Z,30.40
2018-12-13T07:56:50.081Z,41.40
2018-12-13T07:57:50.069Z,38.30
2018-12-13T07:58:50.059Z,32.90
2018-12-13T07:59:50.048Z,29.90
2018-12-13T08:00:50.037Z,29.80
2018-12-13T08:01:50.027Z,27.20
2018-12-13T08:02:50.017Z,27.70
2018-12-13T08:03:50.004Z,27.90
2018-12-13T08:04:49.994Z,25.90
2018-12-13T08:05:49.984Z,32.20
2018-12-13T08:06:49.975Z,28.50
2018-12-13T08:07:49.966Z,29.20
2018-12-13T08:08:49.953Z,27.90
2018-12-13T08:09:49.943Z,27.80
2018-12-13T08:10:49.927Z,26.30
2018-12-13T08:11:49.919Z,26.40
2018-12-13T08:12:49.909Z,25.30
2018-12-13T08:13:49.897Z,26.10
2018-12-13T08:14:49.886Z,25.00
2018-12-13T08:15:49.876Z,25.20
2018-12-13T08:16:49.864Z,25.50
2018-12-13T08:17:49.851Z,25.80
2018-12-13T08:18:49.842Z,25.30
2018-12-13T08:19:49.829Z,25.70
2018-12-13T08:20:49.822Z,25.70
2018-12-13T08:21:49.808Z,24.60
2018-12-13T08:22:49.948Z,24.00
2018-12-13T08:23:49.787Z,24.00
2018-12-13T08:24:49.776Z,26.30
2018-12-13T08:25:49.767Z,24.30
2018-12-13T08:26:49.756Z,24.30
2018-12-13T08:27:49.742Z,24.40
2018-12-13T08:28:49.734Z,25.60
2018-12-13T08:29:49.722Z,25.50
2018-12-13T08:30:49.711Z,24.10
2018-12-13T08:31:49.701Z,25.10
2018-12-13T08:32:49.690Z,24.60
2018-12-13T08:33:49.678Z,24.30
2018-12-13T08:34:49.667Z,23.90
2018-12-13T08:35:49.660Z,25.20
2018-12-13T08:36:49.647Z,24.20
2018-12-13T08:37:49.644Z,24.00
2018-12-13T08:38:49.624Z,24.70
2018-12-13T08:39:49.614Z,23.50
2018-12-13T08:40:49.603Z,24.30
2018-12-13T08:41:49.595Z,23.40
2018-12-13T08:42:49.586Z,23.20
2018-12-13T08:43:49.569Z,24.00
2018-12-13T08:44:49.559Z,23.20
2018-12-13T08:45:49.548Z,23.70
2018-12-13T08:46:49.541Z,23.30
2018-12-13T08:47:49.534Z,23.80
2018-12-13T08:48:49.515Z,23.10
2018-12-13T08:49:49.506Z,22.70
2018-12-13T08:50:49.494Z,23.80
2018-12-13T08:51:49.482Z,22.40
2018-12-13T08:52:49.471Z,23.20
2018-12-13T08:53:49.460Z,23.60
2018-12-13T08:54:49.454Z,21.80
2018-12-13T08:55:49.446Z,24.10
2018-12-13T08:56:49.430Z,22.30
2018-12-13T08:57:49.421Z,23.40
2018-12-13T08:58:49.406Z,23.40
2018-12-13T08:59:49.395Z,23.30
2018-12-13T09:00:49.385Z,23.90
2018-12-13T09:01:49.374Z,25.10
2018-12-13T09:02:49.363Z,23.70
2018-12-13T09:03:49.355Z,23.30
2018-12-13T09:04:49.344Z,24.10
2018-12-13T09:05:49.331Z,24.50
2018-12-13T09:06:49.322Z,24.00
2018-12-13T09:07:49.309Z,24.40
2018-12-13T09:08:49.315Z,23.80
2018-12-13T09:09:49.286Z,24.00
2018-12-13T09:10:49.275Z,23.70
2018-12-13T09:11:49.263Z,24.40
2018-12-13T09:12:49.253Z,23.60
2018-12-13T09:13:49.244Z,24.70
2018-12-13T09:14:49.232Z,24.40
2018-12-13T09:15:49.220Z,24.70
2018-12-13T09:16:49.210Z,24.30
2018-12-13T09:17:49.200Z,23.70
2018-12-13T09:18:49.190Z,23.30
2018-12-13T09:19:49.180Z,23.20
2018-12-13T09:20:49.212Z,24.50
2018-12-13T09:21:49.156Z,22.60
2018-12-13T09:22:49.143Z,22.90
2018-12-13T09:23:49.135Z,24.10
2018-12-13T09:24:49.123Z,24.30
2018-12-13T09:25:49.110Z,24.50
2018-12-13T09:26:49.102Z,24.20
2018-12-13T09:27:49.091Z,23.90
2018-12-13T09:28:49.079Z,23.20
2018-12-13T09:29:49.069Z,24.00
2018-12-13T09:30:49.059Z,24.60
2018-12-13T09:31:49.046Z,24.50
2018-12-13T09:32:49.035Z,24.50
2018-12-13T09:33:49.023Z,24.50
2018-12-13T09:34:49.013Z,23.80
2018-12-13T09:35:49.002Z,24.90
2018-12-13T09:36:48.994Z,25.80
2018-12-13T09:37:48.986Z,24.20
2018-12-13T09:38:48.969Z,23.90
2018-12-13T09:39:48.962Z,25.00
2018-12-13T09:40:48.948Z,24.70
2018-12-13T09:41:48.937Z,31.30
2018-12-13T09:42:48.925Z,31.30
2018-12-13T09:43:48.914Z,35.20
2018-12-13T09:44:48.904Z,123.20
2018-12-13T09:45:48.892Z,51.00
2018-12-13T09:46:48.901Z,61.00
2018-12-13T09:47:48.871Z,47.00
2018-12-13T09:48:49.467Z,50.30
2018-12-13T09:49:48.849Z,40.70
2018-12-13T09:50:48.838Z,35.60
2018-12-13T09:51:48.827Z,27.10
2018-12-13T09:52:48.818Z,26.90
2018-12-13T09:53:48.806Z,24.80
2018-12-13T09:54:48.800Z,25.00
2018-12-13T09:55:48.784Z,23.70
2018-12-13T09:56:48.772Z,22.90
2018-12-13T09:57:48.764Z,22.10
2018-12-13T09:58:48.750Z,26.90
2018-12-13T09:59:48.746Z,26.60
2018-12-13T10:00:48.729Z,25.90
2018-12-13T10:01:48.760Z,27.10
2018-12-13T10:02:48.707Z,24.40
2018-12-13T10:03:48.699Z,23.20
2018-12-13T10:04:48.684Z,21.50
2018-12-13T10:05:48.675Z,21.20
2018-12-13T10:06:48.662Z,20.80
2018-12-13T10:07:48.651Z,21.80
2018-12-13T10:08:48.646Z,21.40
2018-12-13T10:09:48.629Z,21.60
2018-12-13T10:10:48.620Z,21.20
2018-12-13T10:11:48.652Z,23.20
2018-12-13T10:12:48.597Z,21.30
2018-12-13T10:13:48.586Z,21.50
2018-12-13T10:14:48.574Z,21.30
2018-12-13T10:15:48.626Z,20.20
2018-12-13T10:16:48.554Z,19.80
2018-12-13T10:17:48.541Z,20.30
2018-12-13T10:18:48.535Z,19.80
2018-12-13T10:19:48.519Z,20.60
2018-12-13T10:20:48.508Z,19.90
2018-12-13T10:21:48.496Z,20.40
2018-12-13T10:22:48.489Z,19.80
2018-12-13T10:23:48.475Z,19.60
2018-12-13T10:24:48.464Z,18.90
2018-12-13T10:25:48.452Z,18.60
2018-12-13T10:26:48.443Z,18.30
2018-12-13T10:27:48.439Z,18.80
2018-12-13T10:28:48.420Z,18.30
2018-12-13T10:29:48.408Z,19.50
2018-12-13T10:30:48.397Z,18.70
2018-12-13T10:31:48.386Z,20.50
2018-12-13T10:32:48.375Z,22.60
2018-12-13T10:33:48.365Z,20.60
2018-12-13T10:34:48.352Z,19.90
2018-12-13T10:35:48.341Z,22.20
2018-12-13T10:36:48.333Z,22.30
2018-12-13T10:37:48.325Z,20.10
2018-12-13T10:38:53.014Z,20.60
2018-12-13T10:39:49.296Z,20.80
2018-12-13T10:40:48.288Z,19.40
2018-12-13T10:41:48.275Z,19.60
2018-12-13T10:42:48.265Z,19.80
2018-12-13T10:43:48.256Z,19.40
2018-12-13T10:44:48.246Z,20.30
2018-12-13T10:45:48.232Z,19.60
2018-12-13T10:46:48.225Z,19.50
2018-12-13T10:47:48.210Z,19.50
2018-12-13T10:48:48.200Z,19.40
2018-12-13T10:49:48.187Z,19.20
2018-12-13T10:50:48.176Z,18.90
2018-12-13T10:51:48.166Z,19.60
2018-12-13T10:52:48.154Z,19.40
2018-12-13T10:53:48.143Z,20.20
2018-12-13T10:54:48.132Z,19.40
2018-12-13T10:55:48.178Z,19.80
2018-12-13T10:56:48.110Z,19.00
2018-12-13T10:57:48.098Z,18.30
2018-12-13T10:58:48.088Z,19.60
2018-12-13T10:59:48.078Z,19.80
2018-12-13T11:00:48.066Z,19.90
2018-12-13T11:01:48.055Z,19.90
2018-12-13T11:02:48.043Z,20.50
2018-12-13T11:03:48.033Z,20.20
2018-12-13T11:04:48.022Z,19.10
2018-12-13T11:05:48.011Z,18.40
2018-12-13T11:06:48.001Z,19.50
2018-12-13T11:07:47.991Z,18.90
2018-12-13T11:08:47.978Z,20.00
2018-12-13T11:09:47.966Z,20.30
2018-12-13T11:10:47.955Z,19.10
2018-12-13T11:11:47.945Z,20.20
2018-12-13T11:12:47.935Z,18.60
2018-12-13T11:13:47.923Z,18.40
2018-12-13T11:14:47.913Z,18.60
2018-12-13T11:15:47.899Z,18.20
2018-12-13T11:16:47.889Z,16.90
2018-12-13T11:17:47.878Z,17.60
2018-12-13T11:18:47.870Z,18.90
2018-12-13T11:19:47.855Z,18.40
2018-12-13T11:20:47.844Z,18.80
2018-12-13T11:21:47.835Z,17.40
2018-12-13T11:22:47.823Z,16.80
2018-12-13T11:23:47.813Z,15.50
2018-12-13T11:24:47.802Z,16.70
2018-12-13T11:25:47.793Z,17.10
2018-12-13T11:26:47.782Z,15.90
2018-12-13T11:27:47.767Z,16.30
2018-12-13T11:28:47.755Z,15.50
2018-12-13T11:29:47.748Z,15.20
2018-12-13T11:30:47.734Z,15.20
2018-12-13T11:31:47.724Z,15.50
2018-12-13T11:32:47.712Z,15.80
2018-12-13T11:33:47.702Z,16.60
2018-12-13T11:34:47.694Z,16.40
2018-12-13T11:35:47.683Z,16.80
2018-12-13T11:36:47.669Z,17.40
2018-12-13T11:37:47.658Z,17.80
2018-12-13T11:38:47.647Z,17.60
2018-12-13T11:39:47.638Z,18.10
2018-12-13T11:40:47.627Z,17.80
2018-12-13T11:41:47.617Z,18.90
2018-12-13T11:42:47.604Z,18.90
2018-12-13T11:43:47.595Z,18.60
2018-12-13T11:44:47.582Z,19.10
2018-12-13T11:45:47.571Z,17.60
2018-12-13T11:46:47.562Z,17.30
2018-12-13T11:47:47.551Z,18.20
2018-12-13T11:48:47.541Z,19.50
2018-12-13T11:49:47.533Z,18.00
2018-12-13T11:50:47.517Z,18.70
2018-12-13T11:51:47.513Z,18.60
2018-12-13T11:52:47.495Z,19.30
2018-12-13T11:53:47.484Z,18.90
2018-12-13T11:54:47.473Z,18.00
2018-12-13T11:55:47.464Z,19.50
2018-12-13T11:56:47.453Z,17.60
2018-12-13T11:57:47.441Z,18.50
2018-12-13T11:58:47.431Z,17.60
2018-12-13T11:59:47.420Z,18.10
2018-12-13T12:00:47.407Z,18.40
2018-12-13T12:01:47.397Z,19.20
2018-12-13T12:02:47.391Z,18.70
2018-12-13T12:03:47.376Z,18.90
2018-12-13T12:04:47.370Z,18.60
2018-12-13T12:05:47.357Z,18.30
2018-12-13T12:06:47.343Z,18.90
2018-12-13T12:07:47.334Z,19.20
2018-12-13T12:08:47.328Z,19.50
2018-12-13T12:09:47.320Z,19.40
2018-12-13T12:10:47.304Z,20.30
2018-12-13T12:11:47.292Z,20.10
2018-12-13T12:12:47.277Z,20.20
2018-12-13T12:13:47.267Z,20.80
2018-12-13T12:14:47.257Z,20.40
2018-12-13T12:15:47.245Z,21.80
2018-12-13T12:16:47.235Z,21.00
2018-12-13T12:17:47.228Z,21.40
2018-12-13T12:18:47.214Z,22.00
2018-12-13T12:19:47.202Z,21.60
2018-12-13T12:20:47.191Z,21.60
2018-12-13T12:21:47.180Z,21.10
2018-12-13T12:22:47.171Z,22.70
2018-12-13T12:23:47.159Z,21.20
2018-12-13T12:24:47.151Z,22.00
2018-12-13T12:25:47.137Z,22.00
2018-12-13T12:26:47.129Z,21.60
2018-12-13T12:27:47.115Z,22.60
2018-12-13T12:28:47.104Z,22.30
2018-12-13T12:29:47.096Z,22.90
2018-12-13T12:30:47.084Z,22.20
2018-12-13T12:31:47.072Z,21.40
2018-12-13T12:32:47.060Z,22.70
2018-12-13T12:33:47.050Z,22.70
2018-12-13T12:34:47.039Z,22.50
2018-12-13T12:35:47.029Z,23.30
2018-12-13T12:36:47.020Z,24.90
2018-12-13T12:37:47.006Z,25.00
2018-12-13T12:38:46.998Z,22.90
2018-12-13T12:39:46.984Z,23.50
2018-12-13T12:40:46.980Z,23.50
2018-12-13T12:41:46.964Z,20.80
2018-12-13T12:42:46.953Z,21.00
2018-12-13T12:43:46.950Z,23.40
2018-12-13T12:44:46.936Z,21.40
2018-12-13T12:45:46.922Z,28.60
2018-12-13T12:46:46.910Z,22.80
2018-12-13T12:47:46.904Z,21.50
2018-12-13T12:48:46.888Z,21.20
2018-12-13T12:49:46.877Z,21.50
2018-12-13T12:50:46.864Z,21.70
2018-12-13T12:51:46.855Z,21.40
2018-12-13T12:52:46.844Z,22.30
2018-12-13T12:53:46.833Z,25.80
2018-12-13T12:54:46.821Z,25.70
2018-12-13T12:55:46.811Z,27.70
2018-12-13T12:56:46.800Z,26.20